createdAt,value
2024-03-12T00:03:13.427Z,96736.19
2024-03-12T00:08:18.354Z,96734.44
2024-03-12T00:13:22.365Z,96740.25
2024-03-12T00:18:25.796Z,96747.41
2024-03-12T00:23:31.002Z,96754.97
2024-03-12T00:28:34.610Z,96756.63
2024-03-12T00:33:38.061Z,96751.59
2024-03-12T00:38:44.268Z,96757.00
2024-03-12T00:43:47.926Z,96757.81
2024-03-12T00:48:51.461Z,96759.59
2024-03-12T00:53:56.643Z,96763.63
2024-03-12T00:59:00.335Z,96769.28
2024-03-12T01:04:03.446Z,96776.41
2024-03-12T01:09:08.232Z,96780.41
2024-03-12T01:14:11.361Z,96779.50
2024-03-12T01:19:14.656Z,96776.53
2024-03-12T01:24:19.269Z,96778.19
2024-03-12T01:29:22.541Z,96784.56
2024-03-12T01:34:25.568Z,96774.09
2024-03-12T01:39:30.234Z,96776.97
2024-03-12T01:44:33.233Z,96772.38
2024-03-12T01:49:36.284Z,96770.78
2024-03-12T01:54:40.883Z,96770.91
2024-03-12T01:59:43.932Z,96771.81
2024-03-12T02:04:46.936Z,96774.25
2024-03-12T02:09:51.649Z,96774.50
2024-03-12T02:14:54.679Z,96771.09
2024-03-12T02:19:57.768Z,96776.97
2024-03-12T02:25:02.587Z,96767.84
2024-03-12T02:30:06.449Z,96770.72
2024-03-12T02:35:10.224Z,96777.31
2024-03-12T02:40:16.455Z,96774.53
2024-03-12T02:45:20.624Z,96775.84
2024-03-12T02:50:24.887Z,96778.28
2024-03-12T02:55:32.328Z,96785.16
2024-03-12T03:00:35.505Z,96779.72
2024-03-12T03:05:38.741Z,96775.72
2024-03-12T03:10:43.457Z,96778.50
2024-03-12T03:15:47.811Z,96782.75
2024-03-12T03:20:50.998Z,96779.75
2024-03-12T03:25:55.606Z,96783.03
2024-03-12T03:31:00.721Z,96795.31
2024-03-12T03:36:04.513Z,96787.47
2024-03-12T03:41:09.398Z,96788.69
2024-03-12T03:46:13.000Z,96772.16
2024-03-12T03:51:16.015Z,96774.56
2024-03-12T03:56:20.930Z,96773.78
2024-03-12T04:01:24.187Z,96773.00
2024-03-12T04:06:27.247Z,96771.38
2024-03-12T04:11:31.928Z,96778.81
2024-03-12T04:16:34.971Z,96769.38
2024-03-12T04:21:38.077Z,96772.31
2024-03-12T04:26:42.888Z,96770.91
2024-03-12T04:31:46.388Z,96761.03
2024-03-12T04:36:49.543Z,96759.19
2024-03-12T04:41:54.225Z,96758.59
2024-03-12T04:46:57.360Z,96767.63
2024-03-12T04:52:00.577Z,96767.00
2024-03-12T04:57:05.311Z,96757.53
2024-03-12T05:02:08.439Z,96762.59
2024-03-12T05:07:11.476Z,96757.34
2024-03-12T05:12:16.150Z,96748.09
2024-03-12T05:17:19.202Z,96744.69
2024-03-12T05:22:22.299Z,96746.13
2024-03-12T05:27:27.008Z,96745.13
2024-03-12T05:32:30.036Z,96735.47
2024-03-12T05:37:33.181Z,96727.44
2024-03-12T05:42:37.803Z,96729.28
2024-03-12T05:47:40.912Z,96723.66
2024-03-12T05:52:44.071Z,96720.03
2024-03-12T05:57:48.674Z,96716.84
2024-03-12T06:02:51.860Z,96713.41
2024-03-12T06:07:54.864Z,96714.81
2024-03-12T06:12:59.787Z,96721.03
2024-03-12T06:18:03.245Z,96705.53
2024-03-12T06:23:06.310Z,96705.75
2024-03-12T06:28:11.155Z,96699.69
2024-03-12T06:33:14.625Z,96695.47
2024-03-12T06:38:17.828Z,96702.66
2024-03-12T06:43:22.636Z,96699.63
2024-03-12T06:48:25.865Z,96687.13
2024-03-12T06:53:29.037Z,96684.72
2024-03-12T06:58:33.664Z,96675.09
2024-03-12T07:03:36.919Z,96675.03
2024-03-12T07:08:40.007Z,96671.41
2024-03-12T07:13:44.561Z,96679.44
2024-03-12T07:18:48.029Z,96665.78
2024-03-12T07:23:51.150Z,96660.63
2024-03-12T07:28:55.747Z,96665.03
2024-03-12T07:33:58.844Z,96651.38
2024-03-12T07:39:02.086Z,96652.53
2024-03-12T07:44:07.029Z,96652.34
2024-03-12T07:49:12.413Z,96658.34
2024-03-12T07:54:15.639Z,96660.16
2024-03-12T07:59:22.665Z,96645.91
2024-03-12T08:04:25.863Z,96660.16
2024-03-12T08:09:29.087Z,96654.00
2024-03-12T08:14:33.709Z,96655.09
2024-03-12T08:19:36.931Z,96667.78
2024-03-12T08:24:40.643Z,96654.84
2024-03-12T08:29:45.308Z,96658.84
2024-03-12T08:34:48.372Z,96665.53
2024-03-12T08:39:51.694Z,96667.53
2024-03-12T08:44:57.531Z,96658.84
2024-03-12T08:50:00.717Z,96665.16
2024-03-12T08:55:04.090Z,96660.06
2024-03-12T09:00:10.678Z,96648.81
2024-03-12T09:05:13.706Z,96652.72
2024-03-12T09:10:16.821Z,96657.78
2024-03-12T09:15:23.609Z,96649.19
2024-03-12T09:20:28.097Z,96650.28
2024-03-12T09:25:31.320Z,96642.84
2024-03-12T09:30:36.028Z,96634.28
2024-03-12T09:35:39.446Z,96628.97
2024-03-12T09:40:42.996Z,96631.97
2024-03-12T09:45:47.891Z,96634.03
2024-03-12T09:50:51.554Z,96623.56
2024-03-12T09:55:55.537Z,96634.66
2024-03-12T10:01:00.203Z,96623.41
2024-03-12T10:06:03.425Z,96636.94
2024-03-12T10:11:06.473Z,96639.69
2024-03-12T10:16:11.429Z,96631.16
2024-03-12T10:21:23.162Z,96631.78
2024-03-12T10:26:29.641Z,96629.22
2024-03-12T10:31:34.211Z,96627.97
2024-03-12T10:36:37.402Z,96622.84
2024-03-12T10:41:41.117Z,96618.13
2024-03-12T10:46:46.940Z,96612.38
2024-03-12T10:51:50.113Z,96622.22
2024-03-12T10:56:53.151Z,96619.41
2024-03-12T11:01:57.895Z,96608.63
2024-03-12T11:07:03.144Z,96616.03
2024-03-12T11:12:06.631Z,96616.03
2024-03-12T11:17:29.067Z,96617.91
2024-03-12T11:22:32.454Z,96618.44
2024-03-12T11:27:37.020Z,96608.53
2024-03-12T11:32:44.331Z,96612.75
2024-03-12T11:37:48.145Z,96618.34
2024-03-12T11:42:52.199Z,96639.47
2024-03-12T11:47:56.968Z,96635.50
2024-03-12T11:53:14.719Z,96660.00
2024-03-12T11:58:17.881Z,96658.31
2024-03-12T12:03:22.652Z,96662.03
2024-03-12T12:08:26.114Z,96669.13
2024-03-12T12:13:29.585Z,96667.03
2024-03-12T12:18:35.276Z,96661.50
2024-03-12T12:23:38.663Z,96646.19
2024-03-12T12:28:42.159Z,96642.28
2024-03-12T12:33:49.537Z,96648.69
2024-03-12T12:38:59.086Z,96637.22
2024-03-12T12:44:09.864Z,96636.09
2024-03-12T12:49:15.718Z,96644.06
2024-03-12T12:54:22.382Z,96633.06
2024-03-12T12:59:25.530Z,96633.63
2024-03-12T13:04:30.151Z,96645.91
2024-03-12T13:09:34.888Z,96632.84
2024-03-12T13:14:38.666Z,96629.13
2024-03-12T13:19:43.342Z,96630.56
2024-03-12T13:24:46.408Z,96627.31
2024-03-12T13:29:49.435Z,96628.03
2024-03-12T13:34:54.033Z,96636.41
2024-03-12T13:39:57.213Z,96646.44
2024-03-12T13:45:00.348Z,96638.09
2024-03-12T13:50:05.430Z,96621.53
2024-03-12T13:55:09.190Z,96613.38
2024-03-12T14:00:13.481Z,96609.22
2024-03-12T14:05:18.859Z,96616.31
2024-03-12T14:10:22.200Z,96615.91
2024-03-12T14:15:25.596Z,96621.38
2024-03-12T14:20:30.180Z,96625.22
2024-03-12T14:25:33.221Z,96633.59
2024-03-12T14:30:36.309Z,96631.38
2024-03-12T14:35:41.105Z,96626.75
2024-03-12T14:40:44.154Z,96626.78
2024-03-12T14:45:47.752Z,96626.75
2024-03-12T14:50:52.825Z,96627.75
2024-03-12T14:55:56.165Z,96625.56
2024-03-12T15:00:59.322Z,96629.97
2024-03-12T15:06:04.086Z,96636.88
2024-03-12T15:11:07.389Z,96637.38
2024-03-12T15:16:10.743Z,96619.88
2024-03-12T15:21:15.596Z,96618.53
2024-03-12T15:26:18.654Z,96614.50
2024-03-12T15:31:21.719Z,96604.31
2024-03-12T15:36:26.329Z,96596.22
2024-03-12T15:41:29.374Z,96605.09
2024-03-12T15:46:32.392Z,96613.97
2024-03-12T15:51:37.412Z,96627.97
2024-03-12T15:56:40.494Z,96620.69
2024-03-12T16:01:44.689Z,96616.06
2024-03-12T16:06:49.398Z,96610.38
2024-03-12T16:11:52.717Z,96596.31
2024-03-12T16:16:55.741Z,96609.31
2024-03-12T16:22:00.714Z,96620.81
2024-03-12T16:27:03.898Z,96613.31
2024-03-12T16:32:09.105Z,96612.13
2024-03-12T16:37:14.153Z,96618.84
2024-03-12T16:42:17.219Z,96624.16
2024-03-12T16:47:20.269Z,96628.16
2024-03-12T16:52:24.940Z,96616.06
2024-03-12T16:57:28.579Z,96617.78
2024-03-12T17:02:32.232Z,96618.75
2024-03-12T17:07:37.357Z,96609.69
2024-03-12T17:12:40.809Z,96595.31
2024-03-12T17:17:44.908Z,96596.31
2024-03-12T17:22:50.107Z,96595.06
2024-03-12T17:27:53.568Z,96595.88
2024-03-12T17:32:57.182Z,96593.00
2024-03-12T17:38:04.210Z,96590.28
2024-03-12T17:43:07.070Z,96587.81
2024-03-12T17:48:11.701Z,96589.91
2024-03-12T17:53:17.105Z,96588.44
2024-03-12T17:58:22.856Z,96575.25
2024-03-12T18:03:26.945Z,96581.16
2024-03-12T18:08:37.058Z,96571.06
2024-03-12T18:13:40.837Z,96558.78
2024-03-12T18:18:43.880Z,96570.47
2024-03-12T18:23:48.643Z,96556.16
2024-03-12T18:28:51.669Z,96553.63
2024-03-12T18:33:54.783Z,96549.00
2024-03-12T18:38:59.332Z,96537.72
2024-03-12T18:44:02.370Z,96537.16
2024-03-12T18:49:05.942Z,96537.81
2024-03-12T18:54:11.409Z,96537.03
2024-03-12T18:59:15.226Z,96515.94
2024-03-12T19:04:19.829Z,96507.47
2024-03-12T19:09:25.525Z,96494.34
2024-03-12T19:14:30.449Z,96499.03
2024-03-12T19:19:33.831Z,96486.47
2024-03-12T19:24:38.654Z,96472.91
2024-03-12T19:29:41.795Z,96462.69
2024-03-12T19:34:45.446Z,96457.09
2024-03-12T19:39:51.211Z,96449.38
2024-03-12T19:44:54.894Z,96444.59
2024-03-12T19:49:58.442Z,96428.03
2024-03-12T19:55:03.154Z,96414.75
2024-03-12T20:00:07.798Z,96423.00
2024-03-12T20:05:11.056Z,96409.16
2024-03-12T20:10:16.264Z,96414.50
2024-03-12T20:15:19.729Z,96409.16
2024-03-12T20:20:22.887Z,96413.16
2024-03-12T20:25:27.879Z,96422.44
2024-03-12T20:30:31.221Z,96414.56
2024-03-12T20:35:34.386Z,96414.13
2024-03-12T20:40:39.085Z,96423.97
2024-03-12T20:45:42.183Z,96430.53
2024-03-12T20:50:45.335Z,96413.44
2024-03-12T20:55:50.131Z,96426.09
2024-03-12T21:00:53.283Z,96426.66
2024-03-12T21:05:56.354Z,96431.47
2024-03-12T21:11:00.961Z,96432.56
2024-03-12T21:16:04.245Z,96442.25
2024-03-12T21:21:07.306Z,96436.97
2024-03-12T21:26:11.952Z,96437.72
2024-03-12T21:31:14.978Z,96438.59
2024-03-12T21:36:18.024Z,96438.78
2024-03-12T21:41:22.644Z,96441.06
2024-03-12T21:46:25.694Z,96425.19
2024-03-12T21:51:28.749Z,96435.94
2024-03-12T21:56:33.367Z,96429.28
2024-03-12T22:01:36.486Z,96430.03
2024-03-12T22:06:39.643Z,96432.13
2024-03-12T22:11:44.350Z,96432.72
2024-03-12T22:16:47.667Z,96444.69
2024-03-12T22:21:51.474Z,96436.09
2024-03-12T22:26:56.231Z,96432.00
2024-03-12T22:31:59.252Z,96425.91
2024-03-12T22:37:02.434Z,96415.81
2024-03-12T22:42:08.327Z,96420.59
2024-03-12T22:47:12.141Z,96416.84
2024-03-12T22:52:15.688Z,96419.41
2024-03-12T22:57:20.930Z,96413.69
2024-03-12T23:02:24.533Z,96414.75
2024-03-12T23:07:28.013Z,96423.56
2024-03-12T23:12:32.676Z,96431.72
2024-03-12T23:17:35.694Z,96428.06
2024-03-12T23:22:38.803Z,96426.66
2024-03-12T23:27:43.556Z,96425.16
2024-03-12T23:32:46.876Z,96426.34
2024-03-12T23:37:49.963Z,96428.25
2024-03-12T23:42:54.870Z,96436.94
2024-03-12T23:47:58.025Z,96436.22
2024-03-12T23:53:01.141Z,96436.13
2024-03-12T23:58:06.082Z,96444.75
